Time;durP1;ratioP1;P1;durP2;ratioP2;P2;SDS_P1;SDS_P2;PMS_P1;PMS_P2;Temp;Humidity;BMP_temperature;BMP_pressure;BME280_temperature;BME280_humidity;BME280_pressure;Samples;Min_cycle;Max_cycle;Signal;HPM_P1;HPM_P2
2022/04/07 00:01:27;;;;;;;4.68;3.65;;;;;;;14.46;33.34;98785.66;6272639;22;20268;-87
2022/04/07 00:03:52;;;;;;;8.60;6.38;;;;;;;14.27;33.61;98792.78;6274685;22;19996;-87
2022/04/07 00:06:17;;;;;;;4.97;3.97;;;;;;;13.92;34.01;98763.28;6272592;22;20015;-87
2022/04/07 00:08:43;;;;;;;4.35;3.53;;;;;;;14.56;33.89;98841.75;6274179;22;19991;-87
2022/04/07 00:11:10;;;;;;;4.22;3.40;;;;;;;14.02;33.95;98750.34;6272672;22;20000;-87
2022/04/07 00:13:35;;;;;;;4.40;3.70;;;;;;;14.10;34.18;98762.50;6298899;22;20012;-87
2022/04/07 00:16:01;;;;;;;4.25;3.38;;;;;;;13.86;34.81;98742.94;6274227;22;20478;-87
2022/04/07 00:18:27;;;;;;;5.22;4.18;;;;;;;14.40;34.49;98829.81;6272805;22;20053;-87
2022/04/07 00:20:53;;;;;;;8.50;5.78;;;;;;;14.13;34.35;98764.75;6272807;22;20398;-87
2022/04/07 00:23:19;;;;;;;5.68;4.40;;;;;;;13.59;34.58;98689.31;6272816;22;19996;-86
2022/04/07 00:25:45;;;;;;;11.05;8.13;;;;;;;14.60;34.69;98841.09;6274342;22;20004;-87
2022/04/07 00:28:10;;;;;;;11.07;8.07;;;;;;;12.52;34.58;98504.84;6274187;22;20000;-87
2022/04/07 00:30:37;;;;;;;8.52;6.18;;;;;;;13.35;34.36;98609.53;6272718;22;20467;-86
2022/04/07 00:33:04;;;;;;;5.90;4.88;;;;;;;14.77;34.68;98827.22;6274201;22;20003;-86
2022/04/07 00:35:29;;;;;;;4.85;4.35;;;;;;;14.31;34.99;98772.72;6272449;22;20412;-87
2022/04/07 00:37:55;;;;;;;4.75;3.67;;;;;;;14.36;35.10;98798.63;6272385;22;19996;-86
2022/04/07 00:40:20;;;;;;;4.80;3.83;;;;;;;14.54;35.39;98822.56;6272579;22;20356;-87
2022/04/07 00:42:47;;;;;;;5.00;4.18;;;;;;;14.28;35.85;98789.09;6273683;22;20472;-87
2022/04/07 00:45:14;;;;;;;4.85;3.90;;;;;;;13.24;36.12;98620.88;6276014;22;20070;-87
2022/04/07 00:47:40;;;;;;;4.75;4.25;;;;;;;14.44;36.20;98811.63;6274572;22;19999;-87
2022/04/07 00:50:05;;;;;;;4.93;4.47;;;;;;;13.95;36.67;98776.94;6274460;22;20369;-87
2022/04/07 00:52:32;;;;;;;4.60;3.90;;;;;;;13.76;36.78;98729.34;6274583;22;20003;-87
2022/04/07 00:54:58;;;;;;;5.43;4.40;;;;;;;13.64;37.30;98732.72;6274498;22;19996;-87
2022/04/07 00:57:24;;;;;;;5.13;4.47;;;;;;;13.49;37.14;98704.91;6274193;22;20003;-87
2022/04/07 00:59:50;;;;;;;5.63;4.60;;;;;;;13.42;37.52;98720.06;6274105;22;20508;-87
2022/04/07 01:02:15;;;;;;;6.57;4.57;;;;;;;13.65;37.87;98760.88;6275637;22;20039;-87
2022/04/07 01:04:41;;;;;;;4.32;3.92;;;;;;;13.18;37.67;98688.00;6274338;22;20353;-87
2022/04/07 01:07:08;;;;;;;4.85;3.90;;;;;;;13.04;37.88;98686.44;6274222;22;19999;-87
2022/04/07 01:09:34;;;;;;;5.25;4.43;;;;;;;13.31;38.01;98732.16;6274343;22;20011;-87
2022/04/07 01:11:59;;;;;;;5.18;4.47;;;;;;;13.67;38.14;98765.97;6274076;22;20365;-87
2022/04/07 01:14:25;;;;;;;4.82;4.32;;;;;;;13.94;38.10;98814.31;6275627;22;20002;-87
2022/04/07 01:16:51;;;;;;;5.43;4.38;;;;;;;13.64;37.70;98747.81;6275840;22;20057;-87
2022/04/07 01:19:16;;;;;;;5.68;4.57;;;;;;;13.18;38.10;98658.03;6274287;22;20000;-87
2022/04/07 01:21:42;;;;;;;6.03;4.35;;;;;;;13.34;37.86;98710.50;6274182;22;20006;-87
2022/04/07 01:24:10;;;;;;;4.75;4.10;;;;;;;13.98;37.51;98776.50;6275541;22;19996;-87
2022/04/07 01:26:40;;;;;;;4.30;3.90;;;;;;;12.87;37.39;98637.66;6273908;22;20015;-87
2022/04/07 01:29:07;;;;;;;5.45;4.10;;;;;;;13.15;37.37;98666.38;6275832;22;19995;-87
2022/04/07 01:31:33;;;;;;;4.72;3.80;;;;;;;12.53;37.62;98576.13;6275723;22;20000;-87
2022/04/07 01:34:00;;;;;;;5.40;3.75;;;;;;;13.23;37.52;98698.75;6274102;22;20002;-87
2022/04/07 01:36:31;;;;;;;5.07;3.70;;;;;;;13.48;36.80;98703.28;6274118;22;20000;-87
2022/04/07 01:38:58;;;;;;;5.77;3.60;;;;;;;13.81;37.02;98767.47;6275782;22;20071;-88
2022/04/07 01:41:25;;;;;;;4.35;3.75;;;;;;;13.40;37.14;98709.69;6299879;22;20230;-88
2022/04/07 01:43:53;;;;;;;5.57;3.97;;;;;;;13.24;36.79;98657.97;6274094;22;20006;-88
2022/04/07 01:46:21;;;;;;;5.07;3.67;;;;;;;12.94;36.95;98609.25;6275439;22;20441;-88
2022/04/07 01:48:47;;;;;;;5.68;4.00;;;;;;;13.73;37.03;98746.53;6273916;22;20003;-87
2022/04/07 01:51:14;;;;;;;5.57;4.25;;;;;;;12.61;37.63;98573.22;6274140;22;20409;-87
2022/04/07 01:53:41;;;;;;;6.00;4.28;;;;;;;12.73;37.90;98590.06;6275194;22;20003;-88
2022/04/07 01:56:08;;;;;;;6.15;4.40;;;;;;;12.95;37.96;98632.09;6275813;22;19996;-88
2022/04/07 01:58:34;;;;;;;4.65;4.15;;;;;;;13.44;38.54;98728.63;6275964;22;20352;-87
2022/04/07 02:01:00;;;;;;;4.75;4.35;;;;;;;13.43;38.69;98722.50;6273911;22;19996;-87
2022/04/07 02:03:26;;;;;;;4.95;4.07;;;;;;;13.26;38.70;98685.06;6275380;22;20003;-87
2022/04/07 02:05:51;;;;;;;5.28;4.78;;;;;;;12.82;39.07;98643.59;6275607;22;20004;-88
2022/04/07 02:08:18;;;;;;;4.80;4.15;;;;;;;12.68;38.82;98616.38;6274086;22;20024;-88
2022/04/07 02:10:43;;;;;;;5.20;4.70;;;;;;;12.49;38.70;98566.97;6275351;22;20006;-87
2022/04/07 02:13:08;;;;;;;5.50;4.35;;;;;;;12.95;39.02;98632.91;6275120;22;20006;-88
2022/04/07 02:15:35;;;;;;;5.07;4.57;;;;;;;12.71;39.23;98602.72;6273696;22;20433;-87
2022/04/07 02:18:02;;;;;;;6.55;5.10;;;;;;;13.43;39.37;98693.34;6275480;22;19999;-87
2022/04/07 02:20:27;;;;;;;5.78;4.82;;;;;;;13.02;39.33;98643.44;6273661;22;20057;-87
2022/04/07 02:22:53;;;;;;;5.10;4.60;;;;;;;13.34;39.25;98690.09;6273893;22;19995;-87
2022/04/07 02:25:22;;;;;;;8.63;4.45;;;;;;;13.37;39.31;98680.91;6275330;22;20000;-87
2022/04/07 02:27:49;;;;;;;5.70;4.60;;;;;;;12.72;39.12;98553.19;6273887;22;19995;-87
2022/04/07 02:30:15;;;;;;;5.20;4.70;;;;;;;12.97;39.50;98600.88;6273788;22;20000;-87
2022/04/07 02:32:41;;;;;;;6.22;5.22;;;;;;;13.22;39.18;98628.22;6273721;22;20011;-87
2022/04/07 02:35:08;;;;;;;7.03;4.85;;;;;;;13.38;38.81;98618.09;6273591;22;20000;-87
2022/04/07 02:37:34;;;;;;;5.65;4.95;;;;;;;13.05;38.52;98590.00;6275360;22;20008;-87
2022/04/07 02:40:00;;;;;;;6.93;4.75;;;;;;;13.39;38.90;98633.00;6275023;22;20000;-87
2022/04/07 02:42:25;;;;;;;5.45;4.93;;;;;;;12.42;38.54;98494.75;6275164;22;20416;-87
2022/04/07 02:44:50;;;;;;;13.10;5.10;;;;;;;13.53;38.52;98661.00;6273439;22;20053;-87
2022/04/07 02:47:17;;;;;;;6.03;4.63;;;;;;;12.97;38.56;98564.59;6273801;22;20079;-87
2022/04/07 02:49:42;;;;;;;6.28;4.80;;;;;;;13.28;38.58;98597.38;6275383;22;20441;-87
2022/04/07 02:52:09;;;;;;;5.55;4.95;;;;;;;13.56;38.28;98607.53;6273567;22;20061;-87
2022/04/07 02:54:35;;;;;;;6.10;4.78;;;;;;;13.00;38.74;98550.91;6274989;22;20000;-87
2022/04/07 02:57:01;;;;;;;5.60;4.97;;;;;;;13.40;38.65;98586.91;6273067;22;20353;-88
2022/04/07 02:59:26;;;;;;;5.95;4.70;;;;;;;12.68;38.76;98489.25;6272755;22;20441;-87
2022/04/07 03:01:53;;;;;;;5.68;5.10;;;;;;;12.57;38.86;98471.41;6273230;22;20023;-87
2022/04/07 03:04:19;;;;;;;5.45;4.90;;;;;;;12.69;39.15;98513.91;6298937;22;20082;-87
2022/04/07 03:06:44;;;;;;;5.70;4.90;;;;;;;12.14;39.24;98420.25;6273061;22;20054;-87
2022/04/07 03:09:10;;;;;;;6.32;5.40;;;;;;;13.01;40.01;98570.28;6273567;22;20070;-87
2022/04/07 03:11:35;;;;;;;6.55;5.75;;;;;;;13.22;39.91;98601.72;6273479;22;20360;-87
2022/04/07 03:14:00;;;;;;;6.20;5.60;;;;;;;12.43;39.83;98484.97;6274917;22;19995;-88
2022/04/07 03:16:26;;;;;;;8.25;5.32;;;;;;;12.97;39.89;98575.19;6274776;22;19988;-88
2022/04/07 03:18:51;;;;;;;7.38;6.00;;;;;;;12.72;40.31;98532.81;6273454;22;20072;-87
2022/04/07 03:21:17;;;;;;;7.80;6.32;;;;;;;13.26;40.43;98612.69;6273423;22;20393;-87
2022/04/07 03:23:42;;;;;;;9.48;6.90;;;;;;;12.98;40.45;98568.06;6275135;22;19999;-87
2022/04/07 03:26:08;;;;;;;8.38;7.18;;;;;;;12.98;40.06;98560.94;6272939;22;20083;-88
2022/04/07 03:28:33;;;;;;;8.43;5.90;;;;;;;12.68;40.59;98514.94;6273227;22;20007;-87
2022/04/07 03:30:58;;;;;;;8.25;6.38;;;;;;;13.13;40.62;98600.34;6273295;22;20000;-87
2022/04/07 03:33:24;;;;;;;7.35;5.57;;;;;;;12.57;40.51;98512.97;6273311;22;20353;-87
2022/04/07 03:35:49;;;;;;;9.02;7.00;;;;;;;12.84;40.56;98524.97;6274636;22;19999;-87
2022/04/07 03:38:15;;;;;;;9.20;6.57;;;;;;;12.53;40.31;98464.09;6274330;22;19995;-88
2022/04/07 03:40:41;;;;;;;7.25;5.75;;;;;;;12.63;40.19;98494.41;6298514;22;20403;-87
2022/04/07 03:43:06;;;;;;;6.80;6.03;;;;;;;12.35;39.79;98415.38;6274523;22;20003;-87
2022/04/07 03:45:31;;;;;;;7.40;5.45;;;;;;;12.89;39.78;98495.19;6272919;22;20453;-87
2022/04/07 03:47:57;;;;;;;6.40;5.20;;;;;;;12.62;39.54;98437.13;6274729;22;20348;-87
2022/04/07 03:50:23;;;;;;;8.55;5.72;;;;;;;12.71;39.49;98458.88;6272747;22;20496;-87
2022/04/07 03:52:48;;;;;;;7.47;5.10;;;;;;;12.56;39.51;98445.94;6273100;22;20057;-87
2022/04/07 03:55:14;;;;;;;6.47;4.53;;;;;;;13.28;39.32;98570.88;6272803;22;20003;-87
2022/04/07 03:57:40;;;;;;;6.35;5.10;;;;;;;12.50;40.01;98486.53;6272783;22;20066;-88
2022/04/07 04:00:06;;;;;;;6.78;5.60;;;;;;;12.28;39.77;98433.16;6272598;22;20003;-87
2022/04/07 04:02:31;;;;;;;8.50;5.80;;;;;;;12.85;40.08;98523.94;6273006;22;20016;-87
2022/04/07 04:04:57;;;;;;;8.13;6.38;;;;;;;12.80;39.76;98502.59;6274363;22;20010;-87
2022/04/07 04:07:22;;;;;;;8.65;6.60;;;;;;;12.97;40.07;98522.22;6273549;22;19999;-87
2022/04/07 04:09:48;;;;;;;11.50;7.03;;;;;;;12.61;39.88;98472.59;6273098;22;20010;-88
2022/04/07 04:12:13;;;;;;;8.95;6.03;;;;;;;13.19;39.58;98527.94;6274624;22;20038;-87
2022/04/07 04:14:39;;;;;;;8.57;6.38;;;;;;;13.15;39.64;98510.00;6275178;22;20071;-87
2022/04/07 04:17:04;;;;;;;10.93;6.97;;;;;;;13.36;40.00;98539.59;6286396;22;20019;-87
2022/04/07 04:19:30;;;;;;;11.15;7.65;;;;;;;12.23;39.69;98380.06;6289616;22;20000;-87
2022/04/07 04:21:56;;;;;;;10.70;7.05;;;;;;;13.18;40.16;98528.97;6288618;22;20012;-87
2022/04/07 04:24:22;;;;;;;14.38;8.82;;;;;;;12.30;40.18;98409.13;6289575;22;20007;-87
2022/04/07 04:26:47;;;;;;;12.98;9.13;;;;;;;12.88;40.70;98472.38;6291097;22;20003;-87
2022/04/07 04:29:13;;;;;;;10.93;7.53;;;;;;;12.67;41.19;98429.38;6286262;22;19999;-87
2022/04/07 04:31:38;;;;;;;11.38;7.63;;;;;;;12.07;41.16;98354.97;6277526;22;20003;-87
2022/04/07 04:34:03;;;;;;;8.68;6.15;;;;;;;13.18;41.68;98496.34;6278314;22;19995;-88
2022/04/07 04:36:29;;;;;;;10.25;6.07;;;;;;;12.82;41.90;98442.28;6277007;22;20456;-88
2022/04/07 04:38:55;;;;;;;12.20;6.57;;;;;;;13.41;41.92;98528.34;6285178;22;20003;-88
2022/04/07 04:41:20;;;;;;;12.70;7.50;;;;;;;12.67;42.58;98429.38;6284838;22;20003;-88
2022/04/07 04:43:46;;;;;;;14.45;9.25;;;;;;;13.25;43.28;98531.56;6281010;22;20026;-89
2022/04/07 04:46:12;;;;;;;14.35;10.07;;;;;;;12.27;43.81;98397.13;6276763;22;20007;-89
2022/04/07 04:48:38;;;;;;;14.15;9.68;;;;;;;12.21;44.09;98370.72;6274469;22;20026;-88
2022/04/07 04:51:04;;;;;;;13.52;9.95;;;;;;;12.50;44.85;98423.00;6274389;22;20438;-89
2022/04/07 04:53:29;;;;;;;16.02;10.50;;;;;;;12.36;44.72;98395.84;6274904;22;20027;-88
2022/04/07 04:55:55;;;;;;;14.60;11.13;;;;;;;12.60;45.00;98418.00;6274592;22;20452;-89
2022/04/07 04:58:20;;;;;;;16.55;12.10;;;;;;;12.43;45.13;98385.19;6274737;22;20034;-89
2022/04/07 05:00:46;;;;;;;20.08;14.25;;;;;;;13.25;45.23;98497.09;6274673;22;20003;-89
2022/04/07 05:03:12;;;;;;;17.50;12.27;;;;;;;12.57;45.47;98381.38;6274692;22;20481;-87
2022/04/07 05:05:37;;;;;;;16.92;12.40;;;;;;;13.31;45.20;98496.22;6274493;22;20057;-89
2022/04/07 05:08:03;;;;;;;15.15;12.45;;;;;;;13.03;45.44;98454.28;6275976;22;20437;-88
2022/04/07 05:10:28;;;;;;;17.48;11.85;;;;;;;12.67;45.24;98381.72;6275793;22;20460;-89
2022/04/07 05:12:54;;;;;;;15.63;12.75;;;;;;;12.85;45.48;98404.75;6274029;22;20057;-88
2022/04/07 05:15:20;;;;;;;15.32;12.32;;;;;;;12.76;45.25;98376.13;6273973;22;20000;-89
2022/04/07 05:17:49;;;;;;;19.67;13.48;;;;;;;12.69;45.56;98373.53;6275630;22;20434;-88
2022/04/07 05:20:15;;;;;;;17.42;14.13;;;;;;;13.28;45.57;98452.41;6274110;22;20002;-88
2022/04/07 05:22:41;;;;;;;17.73;12.73;;;;;;;13.11;45.36;98406.28;6299622;22;20413;-88
2022/04/07 05:25:07;;;;;;;19.10;13.07;;;;;;;13.10;45.15;98393.25;6274378;22;20054;-89
2022/04/07 05:27:36;;;;;;;22.45;13.05;;;;;;;12.92;45.11;98336.59;6274762;22;19999;-88
2022/04/07 05:30:06;;;;;;;18.95;14.38;;;;;;;13.83;45.23;98478.84;6273636;22;19988;-88
2022/04/07 05:32:31;;;;;;;19.02;14.38;;;;;;;13.22;45.09;98405.56;6273020;22;20000;-88
2022/04/07 05:34:57;;;;;;;16.38;13.63;;;;;;;13.51;44.64;98430.53;6275410;22;20014;-88
2022/04/07 05:37:24;;;;;;;20.70;13.38;;;;;;;13.08;44.61;98347.63;6275587;22;19995;-88
2022/04/07 05:39:51;;;;;;;19.25;13.85;;;;;;;13.25;44.95;98383.09;6272709;22;20003;-88
2022/04/07 05:42:17;;;;;;;22.52;13.95;;;;;;;13.27;44.61;98367.78;6274437;22;20000;-88
2022/04/07 05:44:42;;;;;;;17.48;13.85;;;;;;;13.14;44.95;98338.78;6271725;22;21096;-87
2022/04/07 05:47:08;;;;;;;19.88;15.05;;;;;;;13.14;44.38;98283.13;6273762;22;20030;-90
2022/04/07 05:49:33;;;;;;;16.15;13.60;;;;;;;13.74;44.18;98373.28;6274097;22;20357;-89
2022/04/07 05:52:02;;;;;;;22.88;13.00;;;;;;;14.06;43.96;98403.81;6274532;22;19996;-87
2022/04/07 05:54:28;;;;;;;21.83;13.38;;;;;;;13.88;43.30;98346.31;6274496;22;20057;-88
2022/04/07 05:56:53;;;;;;;18.15;13.18;;;;;;;14.00;43.21;98338.38;6274405;22;19996;-89
2022/04/07 05:59:19;;;;;;;21.08;13.60;;;;;;;13.63;43.28;98297.97;6273937;22;20483;-89
2022/04/07 06:01:44;;;;;;;18.23;12.90;;;;;;;14.57;43.12;98424.47;6273083;22;20020;-88
2022/04/07 06:04:10;;;;;;;26.40;12.93;;;;;;;14.16;42.93;98335.06;6275817;22;20081;-86
2022/04/07 06:06:35;;;;;;;14.68;10.63;;;;;;;14.00;42.38;98333.88;6273903;22;20050;-88
2022/04/07 06:09:01;;;;;;;20.60;10.02;;;;;;;14.72;42.09;98402.75;6273635;22;20349;-87
2022/04/07 06:11:27;;;;;;;23.05;11.07;;;;;;;14.17;41.64;98317.28;6273781;22;20510;-87
2022/04/07 06:13:52;;;;;;;16.10;10.23;;;;;;;13.95;41.67;98298.44;6274984;22;20716;-87
2022/04/07 06:16:17;;;;;;;16.10;9.30;;;;;;;14.22;41.27;98331.50;6272740;22;20071;-87
2022/04/07 06:18:43;;;;;;;14.80;8.57;;;;;;;14.31;41.17;98316.03;6273858;22;20409;-86
2022/04/07 06:21:08;;;;;;;13.60;8.70;;;;;;;14.29;40.59;98312.78;6271790;22;20441;-86
2022/04/07 06:23:34;;;;;;;14.13;9.30;;;;;;;14.21;40.52;98283.94;6271713;22;20069;-86
2022/04/07 06:25:59;;;;;;;12.52;8.27;;;;;;;14.20;40.17;98282.31;6273912;22;20087;-86
2022/04/07 06:28:25;;;;;;;15.05;9.15;;;;;;;13.83;40.27;98216.19;6273621;22;20018;-89
2022/04/07 06:30:51;;;;;;;12.43;9.15;;;;;;;14.18;40.29;98252.56;6272176;22;20104;-87
2022/04/07 06:33:18;;;;;;;12.77;9.48;;;;;;;14.08;40.31;98253.09;6273450;22;20003;-86
2022/04/07 06:35:43;;;;;;;14.25;8.85;;;;;;;14.68;40.20;98335.19;6272242;22;20045;-86
2022/04/07 06:38:09;;;;;;;12.43;9.40;;;;;;;14.52;39.90;98296.06;6271897;22;19999;-87
2022/04/07 06:40:34;;;;;;;14.00;9.85;;;;;;;14.20;39.81;98230.03;6274305;22;20072;-86
2022/04/07 06:43:00;;;;;;;15.25;10.05;;;;;;;14.51;39.70;98263.38;6272973;22;20396;-86
2022/04/07 06:45:26;;;;;;;14.13;10.10;;;;;;;15.10;39.82;98359.72;6272549;22;20007;-87
2022/04/07 06:47:52;;;;;;;16.05;12.35;;;;;;;15.16;39.91;98363.28;6273365;22;20023;-86
2022/04/07 06:50:19;;;;;;;19.13;12.55;;;;;;;15.25;39.89;98359.19;6272012;22;20000;-87
2022/04/07 06:52:45;;;;;;;15.35;10.52;;;;;;;14.83;39.55;98305.44;6272004;22;20007;-87
2022/04/07 06:55:12;;;;;;;15.48;10.32;;;;;;;14.73;38.99;98270.72;6271832;22;20503;-86
2022/04/07 06:57:52;;;;;;;17.23;11.10;;;;;;;14.97;39.45;98298.84;6273821;22;19996;-87
2022/04/07 07:00:19;;;;;;;13.27;10.82;;;;;;;15.23;39.68;98332.84;6268478;22;20010;-86
2022/04/07 07:02:52;;;;;;;17.75;11.75;;;;;;;15.21;39.47;98323.50;6271463;22;20019;-86
2022/04/07 07:05:18;;;;;;;12.05;10.85;;;;;;;14.50;39.43;98231.75;6273292;22;20003;-86
2022/04/07 07:07:44;;;;;;;15.02;11.80;;;;;;;14.55;39.67;98229.19;6273074;22;20003;-86
2022/04/07 07:10:10;;;;;;;14.77;11.75;;;;;;;14.75;40.17;98255.34;6273841;22;20000;-86
2022/04/07 07:12:35;;;;;;;17.90;13.00;;;;;;;14.45;39.57;98197.91;6273572;22;19991;-88
2022/04/07 07:15:01;;;;;;;15.70;13.30;;;;;;;14.51;39.65;98217.41;6272482;22;19999;-85
2022/04/07 07:17:33;;;;;;;17.40;13.43;;;;;;;14.48;39.89;98245.25;6272977;22;20023;-87
2022/04/07 07:20:12;;;;;;;16.98;14.10;;;;;;;14.85;39.66;98287.44;6270957;22;20010;-86
2022/04/07 07:22:39;;;;;;;23.17;14.52;;;;;;;14.61;39.52;98252.97;6272324;22;20003;-86
2022/04/07 07:25:06;;;;;;;17.23;13.73;;;;;;;14.84;39.60;98296.44;6273973;22;20441;-86
2022/04/07 07:27:46;;;;;;;21.42;15.07;;;;;;;14.69;39.92;98273.03;6272503;22;20072;-87
2022/04/07 07:30:15;;;;;;;23.55;16.60;;;;;;;14.08;39.88;98167.38;6272153;22;19996;-87
2022/04/07 07:32:45;;;;;;;17.55;14.32;;;;;;;14.91;39.90;98287.31;6271460;22;20004;-86
2022/04/07 07:35:12;;;;;;;22.60;16.70;;;;;;;14.23;39.92;98191.59;6272255;22;20348;-87
2022/04/07 07:37:50;;;;;;;23.25;17.55;;;;;;;14.46;40.34;98236.72;6271523;22;20505;-87
2022/04/07 07:40:16;;;;;;;20.15;16.95;;;;;;;15.04;40.34;98296.06;6272067;22;20000;-87
2022/04/07 07:42:42;;;;;;;19.15;16.13;;;;;;;14.72;40.38;98237.22;6271050;22;20003;-86
2022/04/07 07:45:08;;;;;;;20.00;14.95;;;;;;;14.70;40.56;98213.53;6272146;22;19996;-86
2022/04/07 07:47:34;;;;;;;20.67;16.20;;;;;;;14.79;40.65;98201.50;6274206;22;20006;-86
2022/04/07 07:50:00;;;;;;;21.75;16.80;;;;;;;15.35;40.70;98262.84;6272448;22;20071;-86
2022/04/07 07:52:26;;;;;;;17.38;12.75;;;;;;;14.61;40.44;98128.13;6273161;22;20062;-87
2022/04/07 07:54:51;;;;;;;9.40;7.95;;;;;;;15.38;39.17;98222.47;6272227;22;20091;-86
2022/04/07 07:57:19;;;;;;;11.32;6.47;;;;;;;15.10;37.49;98114.34;6272031;22;19999;-86
2022/04/07 07:59:44;;;;;;;10.13;5.90;;;;;;;15.09;37.02;98107.41;6272212;22;19996;-86
2022/04/07 08:02:09;;;;;;;7.55;5.45;;;;;;;15.82;36.45;98165.75;6272309;22;20099;-86
2022/04/07 08:04:35;;;;;;;8.52;5.78;;;;;;;15.96;36.00;98147.56;6273503;22;20472;-86
2022/04/07 08:07:00;;;;;;;7.70;5.22;;;;;;;16.25;35.79;98144.72;6272460;22;20058;-87
2022/04/07 08:09:26;;;;;;;7.15;5.25;;;;;;;16.18;34.94;98099.63;6270815;22;19996;-86
2022/04/07 08:11:51;;;;;;;6.82;5.43;;;;;;;16.51;34.54;98096.81;6272446;22;20066;-86
2022/04/07 08:14:17;;;;;;;6.43;5.25;;;;;;;17.34;34.69;98198.66;6272943;22;20034;-86
2022/04/07 08:16:42;;;;;;;7.95;5.25;;;;;;;17.37;33.77;98154.66;6272832;22;19999;-86
2022/04/07 08:19:09;;;;;;;11.57;7.55;;;;;;;17.39;33.42;98161.34;6272479;22;20083;-86
2022/04/07 08:21:35;;;;;;;8.32;6.05;;;;;;;17.39;33.43;98145.34;6274201;22;20000;-86
2022/04/07 08:24:00;;;;;;;9.07;5.95;;;;;;;17.48;33.26;98143.00;6272155;22;20038;-86
2022/04/07 08:26:26;;;;;;;9.73;5.53;;;;;;;17.25;32.57;98109.50;6269946;22;20417;-86
2022/04/07 08:28:51;;;;;;;9.38;5.05;;;;;;;17.08;32.51;98047.47;6271077;22;20000;-86
2022/04/07 08:31:17;;;;;;;6.97;4.82;;;;;;;17.38;32.53;98085.03;6269802;22;20349;-85
2022/04/07 08:33:42;;;;;;;6.53;5.45;;;;;;;17.34;32.24;98067.94;6271638;22;20002;-85
2022/04/07 08:36:08;;;;;;;5.95;4.95;;;;;;;17.90;32.60;98129.69;6271350;22;19992;-85
2022/04/07 08:38:33;;;;;;;7.07;5.00;;;;;;;17.72;32.08;98106.06;6271471;22;20400;-85
2022/04/07 08:41:00;;;;;;;7.35;4.97;;;;;;;18.09;32.20;98128.19;6271736;22;19999;-86
2022/04/07 08:43:25;;;;;;;7.20;4.93;;;;;;;17.73;32.01;98027.59;6274016;22;19995;-86
2022/04/07 08:45:51;;;;;;;10.73;6.00;;;;;;;17.77;31.67;98024.16;6273012;22;20071;-87
2022/04/07 08:48:16;;;;;;;9.00;5.55;;;;;;;18.59;31.87;98112.59;6272046;22;20433;-87
2022/04/07 08:50:43;;;;;;;9.20;5.43;;;;;;;18.75;31.65;98092.03;6271896;22;20007;-86
2022/04/07 08:53:11;;;;;;;7.70;5.03;;;;;;;18.11;31.17;98002.38;6271496;22;20000;-84
2022/04/07 08:55:38;;;;;;;7.05;5.13;;;;;;;17.92;31.61;97978.03;6271213;22;20361;-85
2022/04/07 08:58:04;;;;;;;11.50;5.30;;;;;;;18.46;31.92;98051.59;6272551;22;19996;-84
2022/04/07 09:00:30;;;;;;;12.07;6.75;;;;;;;18.58;31.91;98076.19;6274227;22;20003;-87
2022/04/07 09:02:55;;;;;;;8.75;6.28;;;;;;;17.92;31.96;97978.03;6272955;22;20371;-86
2022/04/07 09:05:25;;;;;;;13.85;6.55;;;;;;;18.16;32.03;98017.59;6275154;22;20008;-86
2022/04/07 09:07:55;;;;;;;8.02;5.97;;;;;;;18.51;32.12;98056.94;6273991;22;20003;-86
2022/04/07 09:10:23;;;;;;;8.73;6.57;;;;;;;18.05;32.45;98012.25;6276233;22;19999;-87
2022/04/07 09:12:50;;;;;;;14.55;5.18;;;;;;;17.98;31.78;97966.28;6274553;22;20000;-86
2022/04/07 09:15:16;;;;;;;21.80;5.80;;;;;;;17.51;31.59;97902.31;6276795;22;20023;-85
2022/04/07 09:17:55;;;;;;;14.93;5.35;;;;;;;18.25;31.27;97992.78;6276407;22;19995;-86
2022/04/07 09:20:22;;;;;;;24.60;6.07;;;;;;;17.74;31.14;97911.75;6276192;22;19999;-86
2022/04/07 09:22:58;;;;;;;17.63;5.72;;;;;;;18.08;31.31;97947.63;6274473;22;20000;-86
2022/04/07 09:25:26;;;;;;;27.30;6.88;;;;;;;18.65;30.95;98037.50;6274947;22;20448;-86
2022/04/07 09:27:53;;;;;;;23.02;5.47;;;;;;;18.02;30.77;97923.84;6276578;22;19996;-86
2022/04/07 09:30:20;;;;;;;23.42;6.40;;;;;;;17.68;30.93;97856.75;6273622;22;20000;-87
2022/04/07 09:32:46;;;;;;;25.88;6.72;;;;;;;18.88;30.85;98022.78;6274774;22;20070;-85
2022/04/07 09:35:12;;;;;;;26.85;6.75;;;;;;;18.25;30.88;97898.47;6275090;22;20002;-85
2022/04/07 09:37:40;;;;;;;25.45;7.60;;;;;;;18.57;30.65;97943.63;6275345;22;20079;-86
2022/04/07 09:40:14;;;;;;;30.45;7.57;;;;;;;18.53;30.74;97915.81;6275130;22;19999;-85
2022/04/07 09:42:43;;;;;;;22.45;9.65;;;;;;;18.82;30.74;97926.78;6274790;22;20011;-86
2022/04/07 09:45:13;;;;;;;24.25;7.90;;;;;;;18.79;30.76;97904.06;6271821;22;20003;-83
2022/04/07 09:47:47;;;;;;;28.05;6.85;;;;;;;18.59;30.36;97855.97;6273625;22;20010;-86
2022/04/07 09:50:31;;;;;;;28.23;8.60;;;;;;;18.89;30.26;97901.38;6272989;22;20012;-85
2022/04/07 09:53:06;;;;;;;27.02;7.28;;;;;;;18.60;29.76;97844.22;6276670;22;20059;-86
2022/04/07 09:55:34;;;;;;;22.25;5.75;;;;;;;18.81;30.00;97855.69;6296343;22;20012;-86
2022/04/07 09:58:02;;;;;;;22.40;6.95;;;;;;;19.16;29.87;97905.56;6290529;22;19995;-86
2022/04/07 10:00:28;;;;;;;22.40;5.75;;;;;;;19.29;29.81;97899.63;6298768;22;20014;-83
2022/04/07 10:02:54;;;;;;;24.30;6.70;;;;;;;19.44;29.45;97934.38;6300554;22;20019;-85
2022/04/07 10:05:21;;;;;;;25.45;6.32;;;;;;;18.86;29.88;97815.53;6289472;22;20095;-85
2022/04/07 10:07:48;;;;;;;17.98;4.90;;;;;;;19.01;29.56;97871.66;6274696;22;20326;-86
2022/04/07 10:10:14;;;;;;;18.95;4.60;;;;;;;19.35;29.62;97899.38;6274883;22;20000;-85
2022/04/07 10:12:40;;;;;;;17.35;5.22;;;;;;;19.07;29.51;97856.38;6271402;22;20004;-86
2022/04/07 10:15:06;;;;;;;16.60;8.48;;;;;;;19.24;30.64;97883.59;6276532;22;20541;-85
2022/04/07 10:17:34;;;;;;;18.77;10.68;;;;;;;18.70;31.82;97820.16;6281235;22;19996;-86
2022/04/07 10:20:06;;;;;;;19.00;11.88;;;;;;;18.83;33.38;97845.50;6279177;22;19999;-86
2022/04/07 10:22:55;;;;;;;20.30;12.52;;;;;;;18.83;33.80;97869.56;6273725;22;20006;-85
2022/04/07 10:25:23;;;;;;;20.17;11.50;;;;;;;18.76;33.77;97858.38;6272261;22;20026;-85
2022/04/07 10:27:54;;;;;;;18.80;13.57;;;;;;;18.87;33.92;97871.44;6273263;22;20003;-86
2022/04/07 10:30:21;;;;;;;18.33;12.60;;;;;;;19.10;34.10;97887.94;6272571;22;20011;-86
2022/04/07 10:32:49;;;;;;;18.13;12.52;;;;;;;18.93;34.18;97869.53;6273193;22;20007;-85
2022/04/07 10:35:33;;;;;;;15.70;11.73;;;;;;;19.00;34.37;97862.81;6273021;22;20000;-85
2022/04/07 10:38:06;;;;;;;18.55;11.30;;;;;;;18.50;34.32;97788.88;6271277;22;20022;-85
2022/04/07 10:40:39;;;;;;;19.63;10.98;;;;;;;19.19;34.29;97888.97;6274541;22;19996;-85
2022/04/07 10:43:05;;;;;;;18.27;11.27;;;;;;;19.10;34.46;97885.25;6273872;22;20411;-86
2022/04/07 10:45:34;;;;;;;19.05;10.05;;;;;;;18.77;34.30;97841.25;6275002;22;20353;-85
2022/04/07 10:48:28;;;;;;;16.88;10.30;;;;;;;19.09;34.45;97880.97;6274371;22;20000;-85
2022/04/07 10:51:02;;;;;;;18.80;10.90;;;;;;;19.02;34.61;97900.00;6276240;22;19996;-85
2022/04/07 10:53:53;;;;;;;13.05;9.57;;;;;;;18.89;35.02;97869.28;6275794;22;20495;-86
2022/04/07 10:56:32;;;;;;;17.98;11.20;;;;;;;18.23;35.08;97802.56;6274973;22;20000;-85
2022/04/07 10:59:16;;;;;;;15.45;11.45;;;;;;;18.66;35.26;97876.03;6290804;22;19999;-85
2022/04/07 11:01:42;;;;;;;16.65;11.02;;;;;;;18.53;35.42;97862.38;6294221;22;20019;-85
2022/04/07 11:04:25;;;;;;;17.33;12.73;;;;;;;18.49;35.72;97862.09;6291336;22;20007;-85
2022/04/07 11:07:09;;;;;;;17.70;11.35;;;;;;;18.38;36.14;97850.63;6293382;22;20030;-86
2022/04/07 11:09:44;;;;;;;15.57;11.80;;;;;;;18.29;36.25;97862.13;6282369;22;20007;-86
2022/04/07 11:12:12;;;;;;;16.65;12.35;;;;;;;17.96;36.13;97813.53;6277034;22;20051;-85
2022/04/07 11:14:37;;;;;;;20.20;11.27;;;;;;;17.95;36.26;97824.50;6279683;22;19999;-85
2022/04/07 11:17:06;;;;;;;17.52;11.32;;;;;;;18.15;36.65;97866.41;6279109;22;20077;-86
2022/04/07 11:20:10;;;;;;;15.48;10.52;;;;;;;17.90;36.44;97819.97;6276621;22;20077;-86
2022/04/07 11:23:05;;;;;;;14.98;10.85;;;;;;;18.16;37.01;97868.03;6275699;22;20004;-88
2022/04/07 11:25:42;;;;;;;12.65;9.88;;;;;;;18.18;36.46;97884.59;6273575;22;20027;-86
2022/04/07 11:28:14;;;;;;;13.82;10.15;;;;;;;17.80;37.26;97857.31;6271813;22;20015;-87